Time;durP1;ratioP1;P1;durP2;ratioP2;P2;SDS_P1;SDS_P2;PMS_P1;PMS_P2;Temp;Humidity;BMP_temperature;BMP_pressure;BME280_temperature;BME280_humidity;BME280_pressure;Samples;Min_cycle;Max_cycle;Signal;HPM_P1;HPM_P2
2024/01/03 00:01:03;;;;;;;0.00;0.00;;;12.80;77.50;;;;;;5086260;28;20730;-25
2024/01/03 00:03:33;;;;;;;0.00;0.00;;;12.80;76.90;;;;;;5085659;28;20203;-25
2024/01/03 00:06:02;;;;;;;0.00;0.00;;;12.80;76.90;;;;;;5086063;28;20318;-26
2024/01/03 00:08:34;;;;;;;0.00;0.00;;;12.80;77.20;;;;;;5086492;28;20202;-25
2024/01/03 00:11:04;;;;;;;0.00;0.00;;;12.90;77.00;;;;;;5087557;28;20198;-26
2024/01/03 00:13:47;;;;;;;0.00;0.00;;;12.90;77.30;;;;;;5085289;28;20226;-26
2024/01/03 00:16:20;;;;;;;0.00;0.00;;;12.90;77.40;;;;;;5087487;28;20202;-26
2024/01/03 00:18:57;;;;;;;0.00;0.00;;;12.80;77.20;;;;;;5085241;28;20215;-25
2024/01/03 00:21:31;;;;;;;0.00;0.00;;;12.80;77.30;;;;;;5086979;28;20199;-26
2024/01/03 00:24:05;;;;;;;0.00;0.00;;;12.80;77.20;;;;;;5087622;28;20219;-25
2024/01/03 00:26:39;;;;;;;0.00;0.00;;;12.80;77.30;;;;;;5086353;28;20211;-26
2024/01/03 00:29:27;;;;;;;0.00;0.00;;;12.80;77.20;;;;;;5080150;28;20699;-25
2024/01/03 00:31:57;;;;;;;0.00;0.00;;;12.80;76.90;;;;;;5080343;28;20195;-25
2024/01/03 00:34:42;;;;;;;0.00;0.00;;;12.80;77.20;;;;;;5085745;28;20621;-25
2024/01/03 00:37:33;;;;;;;0.00;0.00;;;12.90;77.00;;;;;;5085197;28;20215;-25
2024/01/03 00:40:04;;;;;;;0.00;0.00;;;12.80;77.00;;;;;;5087727;28;20884;-25
2024/01/03 00:42:32;;;;;;;0.00;0.00;;;12.90;77.40;;;;;;5086768;28;20199;-26
2024/01/03 00:44:59;;;;;;;0.00;0.00;;;12.90;77.10;;;;;;5086864;28;20759;-25
2024/01/03 00:47:26;;;;;;;0.00;0.00;;;12.80;77.40;;;;;;5084004;28;20188;-25
2024/01/03 00:49:59;;;;;;;0.00;0.00;;;12.80;77.20;;;;;;5087196;28;20772;-25
2024/01/03 00:52:26;;;;;;;0.00;0.00;;;12.90;77.30;;;;;;5079170;28;20301;-25
2024/01/03 00:54:54;;;;;;;0.00;0.00;;;12.90;77.30;;;;;;5087590;28;20252;-26
2024/01/03 00:57:21;;;;;;;0.00;0.00;;;12.80;77.50;;;;;;5087801;28;20217;-26
2024/01/03 00:59:48;;;;;;;0.00;0.00;;;12.80;77.00;;;;;;5085971;28;20203;-25
2024/01/03 01:02:18;;;;;;;0.00;0.00;;;12.80;77.00;;;;;;5088570;28;20302;-25
2024/01/03 01:04:45;;;;;;;0.00;0.00;;;12.80;77.00;;;;;;5086419;28;20225;-25
2024/01/03 01:07:13;;;;;;;0.00;0.00;;;12.80;77.20;;;;;;5087276;28;20250;-25
2024/01/03 01:09:40;;;;;;;0.00;0.00;;;12.80;76.90;;;;;;5088235;28;20199;-25
2024/01/03 01:12:09;;;;;;;0.00;0.00;;;12.80;77.00;;;;;;5070606;28;20625;-25
2024/01/03 01:14:39;;;;;;;0.00;0.00;;;12.80;77.10;;;;;;5088673;28;20299;-25
2024/01/03 01:17:06;;;;;;;0.00;0.00;;;12.80;76.50;;;;;;5085855;28;20199;-25
2024/01/03 01:19:36;;;;;;;0.00;0.00;;;12.80;76.70;;;;;;5085491;28;20665;-25
2024/01/03 01:22:03;;;;;;;0.00;0.00;;;12.80;76.80;;;;;;5087243;28;20268;-25
2024/01/03 01:24:33;;;;;;;0.00;0.00;;;12.80;76.80;;;;;;5087653;28;20229;-25
2024/01/03 01:27:03;;;;;;;0.00;0.00;;;12.80;76.60;;;;;;5084689;28;20203;-25
2024/01/03 01:29:30;;;;;;;0.00;0.00;;;12.70;76.60;;;;;;5088056;28;20260;-25
2024/01/03 01:32:00;;;;;;;0.00;0.00;;;12.70;76.80;;;;;;5087899;28;20226;-25
2024/01/03 01:34:29;;;;;;;0.00;0.00;;;12.70;76.90;;;;;;5085659;28;20199;-25
2024/01/03 01:36:59;;;;;;;0.00;0.00;;;12.70;76.60;;;;;;5087933;28;20221;-25
2024/01/03 01:39:27;;;;;;;0.00;0.00;;;12.70;76.50;;;;;;5068910;28;20240;-25
2024/01/03 01:41:56;;;;;;;0.00;0.00;;;12.70;76.70;;;;;;5088251;28;20317;-25
2024/01/03 01:44:26;;;;;;;0.00;0.00;;;12.60;76.60;;;;;;5086449;28;20326;-25
2024/01/03 01:46:53;;;;;;;0.00;0.00;;;12.60;76.50;;;;;;5087728;28;20238;-25
2024/01/03 01:49:21;;;;;;;0.00;0.00;;;12.60;76.70;;;;;;5086509;28;20198;-25
2024/01/03 01:51:49;;;;;;;0.00;0.00;;;12.60;76.40;;;;;;5085477;28;20232;-25
2024/01/03 01:54:19;;;;;;;0.00;0.00;;;12.60;76.90;;;;;;5087722;28;20790;-25
2024/01/03 01:56:50;;;;;;;0.00;0.00;;;12.60;76.90;;;;;;5079931;28;20207;-25
2024/01/03 01:59:22;;;;;;;0.00;0.00;;;12.60;76.70;;;;;;5084963;28;20207;-26
2024/01/03 02:01:50;;;;;;;0.00;0.00;;;12.60;76.80;;;;;;5086509;28;20569;-26
2024/01/03 02:04:17;;;;;;;0.00;0.00;;;12.60;76.30;;;;;;5085171;28;20211;-26
2024/01/03 02:06:45;;;;;;;0.00;0.00;;;12.60;76.70;;;;;;5087012;28;20235;-25
2024/01/03 02:09:14;;;;;;;0.00;0.00;;;12.60;76.50;;;;;;5086321;28;20286;-25
2024/01/03 02:11:45;;;;;;;0.00;0.00;;;12.60;76.80;;;;;;5087188;28;20660;-25
2024/01/03 02:14:17;;;;;;;0.00;0.00;;;12.60;76.60;;;;;;5082835;28;20282;-25
2024/01/03 02:16:45;;;;;;;0.00;0.00;;;12.60;76.90;;;;;;5086767;28;20206;-25
2024/01/03 02:19:12;;;;;;;0.00;0.00;;;12.60;76.90;;;;;;5084107;28;20210;-25
2024/01/03 02:21:39;;;;;;;0.00;0.00;;;12.50;77.30;;;;;;5085787;28;20261;-25
2024/01/03 02:24:06;;;;;;;0.00;0.00;;;12.50;76.60;;;;;;5087264;28;20203;-26
2024/01/03 02:26:34;;;;;;;0.00;0.00;;;12.50;76.70;;;;;;5069428;28;20225;-26
2024/01/03 02:29:03;;;;;;;0.00;0.00;;;12.50;76.80;;;;;;5086103;28;20930;-25
2024/01/03 02:31:33;;;;;;;0.00;0.00;;;12.50;76.70;;;;;;5084206;28;20300;-25
2024/01/03 02:34:05;;;;;;;0.00;0.00;;;12.50;76.40;;;;;;5086708;28;20826;-25
2024/01/03 02:36:32;;;;;;;0.00;0.00;;;12.50;77.60;;;;;;5087250;28;20211;-25
2024/01/03 02:39:00;;;;;;;0.00;0.00;;;12.50;76.90;;;;;;5085796;28;20943;-25
2024/01/03 02:41:30;;;;;;;0.00;0.00;;;12.50;76.50;;;;;;5085869;28;20677;-25
2024/01/03 02:43:59;;;;;;;0.00;0.00;;;12.50;76.80;;;;;;5085353;28;20289;-25
2024/01/03 02:46:29;;;;;;;0.00;0.00;;;12.50;76.90;;;;;;5084103;28;20211;-25
2024/01/03 02:49:01;;;;;;;0.00;0.00;;;12.50;76.90;;;;;;5086166;28;20207;-25
2024/01/03 02:51:29;;;;;;;0.00;0.00;;;12.50;77.10;;;;;;5084911;28;20195;-25
2024/01/03 02:53:56;;;;;;;0.00;0.00;;;12.50;77.10;;;;;;5085173;28;20214;-25
2024/01/03 02:56:23;;;;;;;0.00;0.00;;;12.50;77.10;;;;;;5085017;28;20740;-25
2024/01/03 02:58:53;;;;;;;0.00;0.00;;;12.50;77.10;;;;;;5087205;28;20205;-25
2024/01/03 03:01:22;;;;;;;0.00;0.00;;;12.50;77.20;;;;;;5085170;28;20199;-26
2024/01/03 03:03:52;;;;;;;0.00;0.00;;;12.50;77.20;;;;;;5082706;28;20321;-25
2024/01/03 03:06:21;;;;;;;0.00;0.00;;;12.50;77.00;;;;;;5084313;28;20238;-25
2024/01/03 03:08:51;;;;;;;0.00;0.00;;;12.50;77.10;;;;;;5090013;28;20199;-25
2024/01/03 03:11:38;;;;;;;0.00;0.00;;;12.60;77.00;;;;;;5088398;28;20325;-25
2024/01/03 03:14:10;;;;;;;0.00;0.00;;;12.60;77.10;;;;;;5088903;28;20219;-25
2024/01/03 03:16:42;;;;;;;0.00;0.00;;;12.60;77.20;;;;;;5072555;28;20195;-25
2024/01/03 03:19:11;;;;;;;0.00;0.00;;;12.60;77.40;;;;;;5086847;28;20264;-26
2024/01/03 03:21:39;;;;;;;0.00;0.00;;;12.60;77.40;;;;;;5087950;28;20690;-25
2024/01/03 03:24:08;;;;;;;0.00;0.00;;;12.50;77.40;;;;;;5071168;28;20206;-25
2024/01/03 03:26:36;;;;;;;0.00;0.00;;;12.60;77.40;;;;;;5088461;28;20229;-25
2024/01/03 03:29:03;;;;;;;0.00;0.00;;;12.60;77.40;;;;;;5087945;28;20203;-25
2024/01/03 03:31:33;;;;;;;0.00;0.00;;;12.60;77.40;;;;;;5071747;28;20195;-25
2024/01/03 03:34:02;;;;;;;0.00;0.00;;;12.60;77.40;;;;;;5088176;28;20720;-26
2024/01/03 03:36:32;;;;;;;0.00;0.00;;;12.60;77.50;;;;;;5088066;28;21007;-25
2024/01/03 03:38:59;;;;;;;0.00;0.00;;;12.60;77.50;;;;;;5088450;28;20828;-26
2024/01/03 03:41:31;;;;;;;0.00;0.00;;;12.60;77.60;;;;;;5090366;28;20214;-26
2024/01/03 03:44:01;;;;;;;0.00;0.00;;;12.60;77.60;;;;;;5090469;28;20203;-26
2024/01/03 03:46:30;;;;;;;0.00;0.00;;;12.60;77.60;;;;;;5089517;28;20234;-26
2024/01/03 03:48:57;;;;;;;0.00;0.00;;;12.60;77.70;;;;;;5087944;28;20207;-26
2024/01/03 03:51:24;;;;;;;0.00;0.00;;;12.60;77.80;;;;;;5070023;28;20203;-27
2024/01/03 03:53:52;;;;;;;0.00;0.00;;;12.60;77.80;;;;;;5089301;28;20201;-26
2024/01/03 03:56:25;;;;;;;0.00;0.00;;;12.60;78.00;;;;;;5085892;28;20223;-26
2024/01/03 03:58:55;;;;;;;0.00;0.00;;;12.60;77.80;;;;;;5089907;28;20278;-26
2024/01/03 04:01:26;;;;;;;0.00;0.00;;;12.60;77.70;;;;;;5085554;28;20223;-27
2024/01/03 04:03:55;;;;;;;0.00;0.00;;;12.60;77.60;;;;;;5087786;28;20851;-26
2024/01/03 04:06:22;;;;;;;0.00;0.00;;;12.60;77.60;;;;;;5086149;28;20227;-26
2024/01/03 04:08:54;;;;;;;0.00;0.00;;;12.60;77.60;;;;;;5087624;28;20210;-26
2024/01/03 04:11:24;;;;;;;0.00;0.00;;;12.60;77.70;;;;;;5088782;28;20271;-26
2024/01/03 04:13:52;;;;;;;0.00;0.00;;;12.60;77.70;;;;;;5089257;28;20229;-26
2024/01/03 04:16:21;;;;;;;0.00;0.00;;;12.50;77.70;;;;;;5088702;28;20562;-26
2024/01/03 04:18:48;;;;;;;0.00;0.00;;;12.50;77.70;;;;;;5083525;28;20213;-26
2024/01/03 04:21:16;;;;;;;0.00;0.00;;;12.50;77.70;;;;;;5089045;28;20823;-26
2024/01/03 04:23:43;;;;;;;0.00;0.00;;;12.50;77.70;;;;;;5087911;28;20203;-26
2024/01/03 04:26:10;;;;;;;0.00;0.00;;;12.50;77.80;;;;;;5087833;28;20214;-26
2024/01/03 04:28:37;;;;;;;0.00;0.00;;;12.50;77.70;;;;;;5084953;28;20200;-26
2024/01/03 04:31:05;;;;;;;0.00;0.00;;;12.40;77.70;;;;;;5088790;28;20214;-26
2024/01/03 04:33:34;;;;;;;0.00;0.00;;;12.40;77.80;;;;;;5088665;28;20265;-26
2024/01/03 04:36:07;;;;;;;0.00;0.00;;;12.40;77.80;;;;;;5088896;28;20301;-26
2024/01/03 04:38:34;;;;;;;0.00;0.00;;;12.40;77.90;;;;;;5068339;28;20951;-26
2024/01/03 04:41:02;;;;;;;0.00;0.00;;;12.40;77.90;;;;;;5063175;28;20247;-27
2024/01/03 04:43:29;;;;;;;0.00;0.00;;;12.40;78.00;;;;;;5087921;28;20199;-27
2024/01/03 04:45:56;;;;;;;0.00;0.00;;;12.50;78.10;;;;;;5087129;28;20242;-27
2024/01/03 04:48:23;;;;;;;0.00;0.00;;;12.50;78.10;;;;;;5069379;28;20261;-27
2024/01/03 04:50:51;;;;;;;0.00;0.00;;;12.50;78.10;;;;;;5088663;28;20217;-27
2024/01/03 04:53:20;;;;;;;0.00;0.00;;;12.50;78.20;;;;;;5086963;28;20218;-27
2024/01/03 04:55:51;;;;;;;0.00;0.00;;;12.50;78.10;;;;;;5088914;28;20203;-27
2024/01/03 04:58:20;;;;;;;0.00;0.00;;;12.50;78.10;;;;;;5088775;28;20199;-28
2024/01/03 05:00:47;;;;;;;0.00;0.00;;;12.50;78.10;;;;;;5088237;28;20198;-27
2024/01/03 05:03:20;;;;;;;0.00;0.00;;;12.50;78.00;;;;;;5066352;28;20203;-27
2024/01/03 05:05:48;;;;;;;0.00;0.00;;;12.50;78.10;;;;;;5086463;28;20417;-27
2024/01/03 05:08:18;;;;;;;0.00;0.00;;;12.50;78.10;;;;;;5088435;28;20233;-27
2024/01/03 05:10:46;;;;;;;0.00;0.00;;;12.50;78.10;;;;;;5070910;28;20536;-27
2024/01/03 05:13:15;;;;;;;0.00;0.00;;;12.50;78.20;;;;;;5088649;28;20322;-27
2024/01/03 05:15:43;;;;;;;0.00;0.00;;;12.50;78.20;;;;;;5087042;28;20203;-27
2024/01/03 05:18:12;;;;;;;0.00;0.00;;;12.50;78.20;;;;;;5087206;28;20217;-26
2024/01/03 05:20:45;;;;;;;0.00;0.00;;;12.50;78.30;;;;;;5087542;28;20213;-26
2024/01/03 05:23:14;;;;;;;0.00;0.00;;;12.50;78.30;;;;;;5069123;28;20222;-26
2024/01/03 05:25:42;;;;;;;0.00;0.00;;;12.50;78.30;;;;;;5087901;28;20221;-26
2024/01/03 05:28:11;;;;;;;0.00;0.00;;;12.40;78.10;;;;;;5086617;28;20209;-26
2024/01/03 05:30:41;;;;;;;0.00;0.00;;;12.40;78.10;;;;;;5086878;28;20206;-26
2024/01/03 05:33:08;;;;;;;0.00;0.00;;;12.50;78.20;;;;;;5085986;28;20601;-26
2024/01/03 05:35:42;;;;;;;0.00;0.00;;;12.50;78.10;;;;;;5086245;28;20286;-27
2024/01/03 05:38:12;;;;;;;0.00;0.00;;;12.50;78.20;;;;;;5069378;28;20418;-26
2024/01/03 05:40:39;;;;;;;0.00;0.00;;;12.50;78.20;;;;;;5086582;28;20238;-26
2024/01/03 05:43:11;;;;;;;0.00;0.00;;;12.40;78.10;;;;;;5084237;28;20558;-26
2024/01/03 05:45:40;;;;;;;0.00;0.00;;;12.50;78.20;;;;;;5082092;28;20815;-26
2024/01/03 05:48:09;;;;;;;0.00;0.00;;;12.50;78.20;;;;;;5081163;28;20211;-26
2024/01/03 05:50:37;;;;;;;0.00;0.00;;;12.40;78.20;;;;;;5082092;28;21038;-26
2024/01/03 05:53:04;;;;;;;0.00;0.00;;;12.50;78.30;;;;;;5094156;28;20213;-26
2024/01/03 05:55:32;;;;;;;0.00;0.00;;;12.50;78.30;;;;;;5066059;28;20195;-26
2024/01/03 05:58:01;;;;;;;0.00;0.00;;;12.50;78.30;;;;;;5082461;28;20217;-26
2024/01/03 06:00:31;;;;;;;0.00;0.00;;;12.50;78.30;;;;;;5081132;28;20191;-26
2024/01/03 06:02:58;;;;;;;0.00;0.00;;;12.50;78.20;;;;;;5085601;28;20278;-27
2024/01/03 06:05:27;;;;;;;0.00;0.00;;;12.50;78.20;;;;;;5076171;28;20239;-26
2024/01/03 06:07:55;;;;;;;0.00;0.00;;;12.50;78.10;;;;;;5086342;28;20215;-26
2024/01/03 06:10:24;;;;;;;0.00;0.00;;;12.50;78.10;;;;;;5083357;28;20223;-26
2024/01/03 06:12:56;;;;;;;0.00;0.00;;;12.50;78.90;;;;;;5086904;28;20206;-27
2024/01/03 06:15:25;;;;;;;0.00;0.00;;;12.50;78.20;;;;;;5084226;28;20206;-26
2024/01/03 06:17:56;;;;;;;0.00;0.00;;;12.50;78.00;;;;;;5083776;28;20205;-26
2024/01/03 06:20:25;;;;;;;0.00;0.00;;;12.50;78.00;;;;;;5085197;28;20294;-26
2024/01/03 06:22:55;;;;;;;0.00;0.00;;;12.50;78.00;;;;;;5079002;28;20199;-26
2024/01/03 06:25:22;;;;;;;0.00;0.00;;;12.50;78.00;;;;;;5092003;28;20211;-26
2024/01/03 06:27:53;;;;;;;0.00;0.00;;;12.40;77.90;;;;;;5062039;28;20696;-26
2024/01/03 06:30:20;;;;;;;0.00;0.00;;;12.40;77.70;;;;;;5083212;28;20728;-26
2024/01/03 06:32:48;;;;;;;0.00;0.00;;;12.40;77.80;;;;;;5078629;28;20758;-26
2024/01/03 06:35:15;;;;;;;0.00;0.00;;;12.40;77.90;;;;;;5084897;28;20210;-27
2024/01/03 06:37:43;;;;;;;0.00;0.00;;;12.40;77.80;;;;;;5079638;28;20207;-26
2024/01/03 06:40:14;;;;;;;0.00;0.00;;;12.40;77.80;;;;;;5085922;28;20207;-26
2024/01/03 06:42:44;;;;;;;0.00;0.00;;;12.40;77.70;;;;;;5080217;28;20219;-26
2024/01/03 06:45:11;;;;;;;0.00;0.00;;;12.30;77.90;;;;;;5079215;28;20205;-26
2024/01/03 06:47:42;;;;;;;0.00;0.00;;;12.30;77.90;;;;;;5079162;28;20227;-26
2024/01/03 06:50:14;;;;;;;0.00;0.00;;;12.40;78.00;;;;;;5068039;28;20618;-26
2024/01/03 06:52:44;;;;;;;0.00;0.00;;;12.30;78.00;;;;;;5077116;28;20198;-26
2024/01/03 06:55:11;;;;;;;0.00;0.00;;;12.30;78.00;;;;;;5081801;28;20214;-26
2024/01/03 06:57:40;;;;;;;0.00;0.00;;;12.30;78.00;;;;;;5085635;28;20210;-26
2024/01/03 07:00:08;;;;;;;0.00;0.00;;;12.30;78.00;;;;;;5075452;28;20215;-26
2024/01/03 07:02:40;;;;;;;0.00;0.00;;;12.30;78.00;;;;;;5086090;28;20209;-26
2024/01/03 07:05:10;;;;;;;0.00;0.00;;;12.30;78.00;;;;;;5073698;28;20209;-26
2024/01/03 07:07:37;;;;;;;0.00;0.00;;;12.30;78.00;;;;;;5075912;28;20215;-26
2024/01/03 07:10:09;;;;;;;0.00;0.00;;;12.30;77.70;;;;;;5074555;28;20807;-26
2024/01/03 07:12:38;;;;;;;0.00;0.00;;;12.30;77.90;;;;;;5074406;28;20213;-26
2024/01/03 07:15:10;;;;;;;0.00;0.00;;;12.30;77.80;;;;;;5081305;28;20207;-26
2024/01/03 07:17:37;;;;;;;0.00;0.00;;;12.30;77.80;;;;;;5074596;28;20217;-26
2024/01/03 07:20:05;;;;;;;0.00;0.00;;;12.30;77.80;;;;;;5077639;28;20338;-26
2024/01/03 07:22:35;;;;;;;0.00;0.00;;;12.30;77.90;;;;;;5085016;28;20203;-26
2024/01/03 07:25:04;;;;;;;0.00;0.00;;;12.20;77.70;;;;;;5086437;28;20749;-26
2024/01/03 07:27:34;;;;;;;0.00;0.00;;;12.20;77.60;;;;;;5084847;28;20242;-26
2024/01/03 07:30:01;;;;;;;0.00;0.00;;;12.20;77.40;;;;;;5084872;28;20206;-26
2024/01/03 07:32:30;;;;;;;0.00;0.00;;;12.20;77.60;;;;;;5084868;28;20200;-26
2024/01/03 07:35:00;;;;;;;0.00;0.00;;;12.20;77.70;;;;;;5079666;28;20206;-26
2024/01/03 07:37:30;;;;;;;0.00;0.00;;;12.20;77.40;;;;;;5086087;28;20233;-26
2024/01/03 07:39:59;;;;;;;0.00;0.00;;;12.10;77.60;;;;;;5089688;28;20211;-26
2024/01/03 07:42:26;;;;;;;0.00;0.00;;;12.10;77.60;;;;;;5087059;28;20294;-26
2024/01/03 07:44:54;;;;;;;0.00;0.00;;;12.10;77.40;;;;;;5083622;28;20209;-26
2024/01/03 07:47:23;;;;;;;0.00;0.00;;;12.10;77.60;;;;;;5087069;28;20300;-26
2024/01/03 07:49:53;;;;;;;0.00;0.00;;;12.10;77.60;;;;;;5090372;28;20592;-26
2024/01/03 07:52:20;;;;;;;0.00;0.00;;;12.00;77.50;;;;;;5082888;28;20202;-26
2024/01/03 07:54:49;;;;;;;0.00;0.00;;;12.10;77.60;;;;;;5085791;28;20231;-27
2024/01/03 07:57:19;;;;;;;0.00;0.00;;;12.00;77.50;;;;;;5084478;28;20203;-26
2024/01/03 07:59:47;;;;;;;0.00;0.00;;;12.10;77.60;;;;;;5085783;28;20954;-27
2024/01/03 08:02:14;;;;;;;0.00;0.00;;;12.00;77.60;;;;;;5087572;28;20209;-26
2024/01/03 08:04:46;;;;;;;0.00;0.00;;;12.00;77.70;;;;;;5085560;28;20217;-26
2024/01/03 08:07:13;;;;;;;0.00;0.00;;;12.00;77.70;;;;;;5086085;28;20280;-26
2024/01/03 08:09:43;;;;;;;0.00;0.00;;;12.00;77.70;;;;;;5086622;28;20214;-26
2024/01/03 08:12:10;;;;;;;0.00;0.00;;;12.00;77.60;;;;;;5061881;28;20209;-26
2024/01/03 08:14:40;;;;;;;0.00;0.00;;;12.10;77.70;;;;;;5085978;28;20473;-26
2024/01/03 08:17:07;;;;;;;0.00;0.00;;;12.10;77.80;;;;;;5082065;28;20223;-26
2024/01/03 08:19:34;;;;;;;0.00;0.00;;;12.00;77.70;;;;;;5068833;28;20269;-26
2024/01/03 08:22:05;;;;;;;0.00;0.00;;;12.00;77.80;;;;;;5085816;28;20230;-26
2024/01/03 08:24:33;;;;;;;0.00;0.00;;;12.00;77.90;;;;;;5077396;28;20206;-26
2024/01/03 08:27:03;;;;;;;0.00;0.00;;;12.00;78.00;;;;;;5084339;28;20489;-26
2024/01/03 08:29:34;;;;;;;0.00;0.00;;;12.00;78.00;;;;;;5067725;28;20252;-26
2024/01/03 08:32:01;;;;;;;0.00;0.00;;;12.10;78.10;;;;;;5084003;28;20199;-26
2024/01/03 08:34:28;;;;;;;0.00;0.00;;;12.10;78.10;;;;;;5082960;28;20229;-26
2024/01/03 08:36:58;;;;;;;0.00;0.00;;;12.10;78.10;;;;;;5086541;28;20222;-26
2024/01/03 08:39:25;;;;;;;0.00;0.00;;;12.10;78.10;;;;;;5082004;28;20218;-26
2024/01/03 08:41:57;;;;;;;0.00;0.00;;;12.10;78.20;;;;;;5071418;28;20207;-26
2024/01/03 08:44:28;;;;;;;0.00;0.00;;;12.10;78.20;;;;;;5085696;28;20199;-26
2024/01/03 08:46:58;;;;;;;0.00;0.00;;;12.10;78.30;;;;;;5082835;28;20291;-26
2024/01/03 08:49:27;;;;;;;0.00;0.00;;;12.20;78.30;;;;;;5081180;28;20345;-26
2024/01/03 08:51:56;;;;;;;0.00;0.00;;;12.20;78.30;;;;;;5086776;28;20241;-26
2024/01/03 08:54:29;;;;;;;0.00;0.00;;;12.20;78.30;;;;;;5087630;28;20199;-26
2024/01/03 08:56:58;;;;;;;0.00;0.00;;;12.20;78.30;;;;;;5080811;28;20724;-27
2024/01/03 08:59:25;;;;;;;0.00;0.00;;;12.20;78.30;;;;;;5080095;28;20204;-26
2024/01/03 09:01:56;;;;;;;0.00;0.00;;;12.20;78.30;;;;;;5082384;28;20203;-26
2024/01/03 09:04:28;;;;;;;0.00;0.00;;;12.20;78.20;;;;;;5063601;28;20210;-26
2024/01/03 09:06:55;;;;;;;0.00;0.00;;;12.20;78.30;;;;;;5084830;28;20270;-26
2024/01/03 09:09:23;;;;;;;0.00;0.00;;;12.20;78.30;;;;;;5077893;28;20257;-26
2024/01/03 09:11:50;;;;;;;0.00;0.00;;;12.30;78.30;;;;;;5075695;28;20294;-26
2024/01/03 09:14:18;;;;;;;0.00;0.00;;;12.30;78.40;;;;;;5080861;28;20264;-26
2024/01/03 09:16:46;;;;;;;0.00;0.00;;;12.30;78.30;;;;;;5080002;28;20209;-26
2024/01/03 09:19:18;;;;;;;0.00;0.00;;;12.30;78.20;;;;;;5074650;28;20215;-26
2024/01/03 09:21:54;;;;;;;0.00;0.00;;;12.30;78.20;;;;;;5097108;28;20234;-26
2024/01/03 09:24:21;;;;;;;0.00;0.00;;;12.30;79.00;;;;;;5082421;28;20218;-26
2024/01/03 09:26:51;;;;;;;0.00;0.00;;;12.20;78.10;;;;;;5074401;28;20864;-26
2024/01/03 09:29:19;;;;;;;0.00;0.00;;;12.20;78.10;;;;;;5071492;28;20203;-26
2024/01/03 09:31:48;;;;;;;0.00;0.00;;;12.30;78.10;;;;;;5054484;28;20215;-26
2024/01/03 09:34:15;;;;;;;0.00;0.00;;;12.30;78.80;;;;;;5046919;28;20206;-26
2024/01/03 09:36:45;;;;;;;0.00;0.00;;;12.30;78.10;;;;;;5075054;28;20252;-27
2024/01/03 09:39:19;;;;;;;0.00;0.00;;;12.30;78.10;;;;;;5059343;28;20211;-26
2024/01/03 09:41:49;;;;;;;0.00;0.00;;;12.20;78.00;;;;;;5077321;28;20205;-26
2024/01/03 09:44:18;;;;;;;0.00;0.00;;;12.20;78.10;;;;;;5085143;28;20287;-26
2024/01/03 09:46:48;;;;;;;0.00;0.00;;;12.20;78.20;;;;;;5083090;28;20290;-26
2024/01/03 09:49:18;;;;;;;0.00;0.00;;;12.20;78.30;;;;;;5078522;28;20215;-26
2024/01/03 09:51:47;;;;;;;0.00;0.00;;;12.30;78.40;;;;;;5077684;28;20204;-26
2024/01/03 09:54:14;;;;;;;0.00;0.00;;;12.30;78.40;;;;;;5074173;28;20203;-26
2024/01/03 09:56:45;;;;;;;0.00;0.00;;;12.30;78.40;;;;;;5068798;28;20222;-26
2024/01/03 09:59:17;;;;;;;0.00;0.00;;;12.30;78.30;;;;;;5076199;28;20209;-26
2024/01/03 10:01:59;;;;;;;0.00;0.00;;;12.30;78.40;;;;;;5078152;28;20194;-26
2024/01/03 10:04:27;;;;;;;0.00;0.00;;;12.30;78.40;;;;;;5078917;28;20222;-26
2024/01/03 10:06:58;;;;;;;0.00;0.00;;;12.30;78.40;;;;;;5079388;28;20239;-26
2024/01/03 10:09:44;;;;;;;0.00;0.00;;;12.30;78.40;;;;;;5079298;28;20206;-26
2024/01/03 10:12:18;;;;;;;0.00;0.00;;;12.40;78.50;;;;;;5076370;28;20306;-26
2024/01/03 10:14:46;;;;;;;0.00;0.00;;;12.40;78.40;;;;;;5070060;28;20202;-26
2024/01/03 10:17:13;;;;;;;0.00;0.00;;;12.40;78.20;;;;;;5070449;28;20775;-26
2024/01/03 10:19:40;;;;;;;0.00;0.00;;;12.40;78.30;;;;;;5084534;28;20199;-26
2024/01/03 10:22:11;;;;;;;0.00;0.00;;;12.40;78.40;;;;;;5083277;28;20702;-26
2024/01/03 10:24:46;;;;;;;0.00;0.00;;;12.40;78.30;;;;;;5071334;28;20216;-26
2024/01/03 10:27:13;;;;;;;0.00;0.00;;;12.40;78.40;;;;;;5072018;28;20718;-26
2024/01/03 10:29:40;;;;;;;0.00;0.00;;;12.40;78.60;;;;;;5085821;28;20202;-26
2024/01/03 10:32:11;;;;;;;0.00;0.00;;;12.40;78.60;;;;;;5071882;28;20322;-26
2024/01/03 10:34:38;;;;;;;0.00;0.00;;;12.50;78.70;;;;;;5082842;28;20252;-26
2024/01/03 10:37:08;;;;;;;0.00;0.00;;;12.50;78.80;;;;;;5079762;28;20973;-26
2024/01/03 10:39:36;;;;;;;0.00;0.00;;;12.50;78.60;;;;;;5083086;28;20648;-25
2024/01/03 10:42:07;;;;;;;0.00;0.00;;;12.50;79.00;;;;;;5072880;28;20636;-26
2024/01/03 10:44:39;;;;;;;0.00;0.00;;;12.50;78.40;;;;;;5063373;28;20200;-26
2024/01/03 10:47:08;;;;;;;0.00;0.00;;;12.60;78.40;;;;;;5080255;28;20217;-26
2024/01/03 10:49:38;;;;;;;0.00;0.00;;;12.60;78.40;;;;;;5085890;28;20198;-26
2024/01/03 10:52:09;;;;;;;0.00;0.00;;;12.60;78.50;;;;;;5076118;28;20215;-26
2024/01/03 10:54:42;;;;;;;0.00;0.00;;;12.60;78.40;;;;;;5065820;28;20200;-26
2024/01/03 10:57:12;;;;;;;0.00;0.00;;;12.60;78.60;;;;;;5069532;28;20268;-26
2024/01/03 10:59:48;;;;;;;0.00;0.00;;;12.70;78.60;;;;;;5074785;28;20203;-26
2024/01/03 11:02:30;;;;;;;0.00;0.00;;;12.70;78.60;;;;;;5067938;28;20223;-27
2024/01/03 11:05:04;;;;;;;0.00;0.00;;;12.70;78.60;;;;;;5065825;28;20299;-26
2024/01/03 11:07:50;;;;;;;0.00;0.00;;;12.70;78.60;;;;;;5081031;28;20342;-26
2024/01/03 11:10:54;;;;;;;0.00;0.00;;;12.80;78.50;;;;;;5085352;28;20222;-26
2024/01/03 11:13:31;;;;;;;0.00;0.00;;;12.70;78.40;;;;;;5066084;28;20306;-26
2024/01/03 11:15:59;;;;;;;0.00;0.00;;;12.80;78.30;;;;;;5076205;28;20572;-26
2024/01/03 11:18:42;;;;;;;0.00;0.00;;;12.70;78.30;;;;;;5083507;28;20203;-26
2024/01/03 11:21:28;;;;;;;0.00;0.00;;;12.80;78.50;;;;;;5080731;28;20207;-26
2024/01/03 11:23:58;;;;;;;0.00;0.00;;;12.80;78.30;;;;;;5072020;28;20591;-26
2024/01/03 11:29:43;;;;;;;0.00;0.00;;;12.80;78.30;;;;;;5088902;28;20247;-26
2024/01/03 11:32:14;;;;;;;0.00;0.00;;;12.80;78.30;;;;;;5082570;28;20210;-26
2024/01/03 11:34:48;;;;;;;0.00;0.00;;;12.80;78.20;;;;;;5083804;28;20577;-26
2024/01/03 11:37:19;;;;;;;0.00;0.00;;;12.80;78.30;;;;;;5081910;28;20221;-26
2024/01/03 11:39:51;;;;;;;0.00;0.00;;;12.80;78.40;;;;;;5075699;28;20195;-26
2024/01/03 11:42:23;;;;;;;0.00;0.00;;;12.90;78.50;;;;;;5084762;28;20201;-26
2024/01/03 11:45:00;;;;;;;0.00;0.00;;;12.90;78.30;;;;;;5085411;28;20214;-25
2024/01/03 11:47:27;;;;;;;0.00;0.00;;;12.90;78.50;;;;;;5083646;28;20317;-26
2024/01/03 11:50:03;;;;;;;0.00;0.00;;;13.00;78.10;;;;;;5080527;28;20195;-26
2024/01/03 11:52:38;;;;;;;0.00;0.00;;;13.00;78.40;;;;;;5071722;28;20218;-26
2024/01/03 11:55:10;;;;;;;0.00;0.00;;;13.00;78.30;;;;;;5085669;28;20202;-26
2024/01/03 11:57:40;;;;;;;0.00;0.00;;;13.00;78.40;;;;;;5076968;28;20673;-26
2024/01/03 12:00:13;;;;;;;0.00;0.00;;;13.10;78.30;;;;;;5081258;28;20729;-26
2024/01/03 12:02:53;;;;;;;0.00;0.00;;;13.10;78.00;;;;;;5073714;28;20657;-26
2024/01/03 12:05:25;;;;;;;0.00;0.00;;;13.10;77.50;;;;;;5080120;28;20226;-26
2024/01/03 12:07:54;;;;;;;0.00;0.00;;;13.10;77.70;;;;;;5087664;28;20310;-26
2024/01/03 12:10:23;;;;;;;0.00;0.00;;;13.10;77.90;;;;;;5085485;28;20229;-25
2024/01/03 12:12:53;;;;;;;0.00;0.00;;;13.10;77.20;;;;;;5085804;28;20206;-26
2024/01/03 12:15:28;;;;;;;0.00;0.00;;;13.10;77.60;;;;;;5088564;28;20267;-25
2024/01/03 12:18:20;;;;;;;0.00;0.00;;;13.20;78.20;;;;;;5084104;28;20211;-26
2024/01/03 12:20:53;;;;;;;0.00;0.00;;;13.10;77.40;;;;;;5082513;28;20206;-26
2024/01/03 12:23:23;;;;;;;0.00;0.00;;;13.20;77.60;;;;;;5073527;28;20206;-26
2024/01/03 12:25:50;;;;;;;0.00;0.00;;;13.20;77.70;;;;;;5086048;28;20219;-26
2024/01/03 12:28:23;;;;;;;0.00;0.00;;;13.20;77.70;;;;;;5073982;28;20223;-26
2024/01/03 12:30:56;;;;;;;0.00;0.00;;;13.20;77.70;;;;;;5082950;28;20199;-26
2024/01/03 12:33:24;;;;;;;0.00;0.00;;;13.20;78.00;;;;;;5085067;28;20638;-25
2024/01/03 12:36:03;;;;;;;0.00;0.00;;;13.10;77.10;;;;;;5079588;28;20209;-26
2024/01/03 12:38:35;;;;;;;0.00;0.00;;;13.10;77.60;;;;;;5080756;28;20334;-26
2024/01/03 12:41:04;;;;;;;0.00;0.00;;;13.10;77.70;;;;;;5086577;28;20547;-26
2024/01/03 12:43:34;;;;;;;0.00;0.00;;;13.10;77.80;;;;;;5079534;28;20218;-27
2024/01/03 12:46:05;;;;;;;0.00;0.00;;;13.00;77.80;;;;;;5083076;28;20675;-26
2024/01/03 12:48:37;;;;;;;0.00;0.00;;;13.00;77.80;;;;;;5080088;28;20231;-26
2024/01/03 12:51:07;;;;;;;0.00;0.00;;;13.00;77.70;;;;;;5081564;28;20191;-28
2024/01/03 12:53:37;;;;;;;0.00;0.00;;;13.00;77.70;;;;;;5075167;28;20833;-28
2024/01/03 12:56:07;;;;;;;0.00;0.00;;;12.90;77.70;;;;;;5070245;28;20192;-27
2024/01/03 12:58:35;;;;;;;0.00;0.00;;;12.90;77.90;;;;;;5079629;28;20210;-27
2024/01/03 13:01:03;;;;;;;0.00;0.00;;;12.90;77.80;;;;;;5071988;28;20300;-27
2024/01/03 13:03:35;;;;;;;0.00;0.00;;;12.90;77.70;;;;;;5080372;28;20279;-27
2024/01/03 13:06:06;;;;;;;0.00;0.00;;;12.80;77.80;;;;;;5082714;28;20266;-27